sensor_id;sensor_type;location;lat;lon;timestamp;P1;durP1;ratioP1;P2;durP2;ratioP2
64244;SDS011;50584;29.058;-110.966;2022-12-18T00:02:15;7.00;;;3.97;;
64244;SDS011;50584;29.058;-110.966;2022-12-18T00:04:41;8.18;;;3.50;;
64244;SDS011;50584;29.058;-110.966;2022-12-18T00:07:07;5.20;;;3.58;;
64244;SDS011;50584;29.058;-110.966;2022-12-18T00:09:32;11.35;;;3.78;;
64244;SDS011;50584;29.058;-110.966;2022-12-18T00:11:58;6.88;;;3.83;;
64244;SDS011;50584;29.058;-110.966;2022-12-18T00:14:24;4.32;;;3.85;;
64244;SDS011;50584;29.058;-110.966;2022-12-18T00:16:50;11.85;;;3.80;;
64244;SDS011;50584;29.058;-110.966;2022-12-18T00:19:15;7.70;;;3.85;;
64244;SDS011;50584;29.058;-110.966;2022-12-18T00:21:42;6.70;;;3.88;;
64244;SDS011;50584;29.058;-110.966;2022-12-18T00:24:08;4.90;;;3.63;;
64244;SDS011;50584;29.058;-110.966;2022-12-18T00:26:34;18.85;;;4.45;;
64244;SDS011;50584;29.058;-110.966;2022-12-18T00:29:02;15.52;;;4.65;;
64244;SDS011;50584;29.058;-110.966;2022-12-18T00:31:28;16.58;;;4.18;;
64244;SDS011;50584;29.058;-110.966;2022-12-18T00:33:54;15.75;;;4.13;;
64244;SDS011;50584;29.058;-110.966;2022-12-18T00:36:24;25.95;;;4.47;;
64244;SDS011;50584;29.058;-110.966;2022-12-18T00:38:51;18.42;;;4.40;;
64244;SDS011;50584;29.058;-110.966;2022-12-18T00:41:18;4.45;;;3.63;;
64244;SDS011;50584;29.058;-110.966;2022-12-18T00:44:04;11.77;;;3.70;;
64244;SDS011;50584;29.058;-110.966;2022-12-18T00:46:30;8.88;;;3.45;;
64244;SDS011;50584;29.058;-110.966;2022-12-18T00:48:56;11.30;;;4.07;;
64244;SDS011;50584;29.058;-110.966;2022-12-18T00:51:22;15.85;;;3.60;;
64244;SDS011;50584;29.058;-110.966;2022-12-18T00:53:48;21.17;;;4.35;;
64244;SDS011;50584;29.058;-110.966;2022-12-18T00:56:14;7.22;;;3.58;;
64244;SDS011;50584;29.058;-110.966;2022-12-18T00:58:40;15.60;;;3.15;;
64244;SDS011;50584;29.058;-110.966;2022-12-18T01:01:06;11.50;;;3.47;;
64244;SDS011;50584;29.058;-110.966;2022-12-18T01:03:31;9.40;;;3.58;;
64244;SDS011;50584;29.058;-110.966;2022-12-18T01:05:57;10.48;;;4.13;;
64244;SDS011;50584;29.058;-110.966;2022-12-18T01:08:23;14.95;;;4.32;;
64244;SDS011;50584;29.058;-110.966;2022-12-18T01:10:49;17.88;;;4.88;;
64244;SDS011;50584;29.058;-110.966;2022-12-18T01:13:14;16.20;;;4.20;;
64244;SDS011;50584;29.058;-110.966;2022-12-18T01:15:40;14.05;;;4.53;;
64244;SDS011;50584;29.058;-110.966;2022-12-18T01:18:06;12.90;;;4.50;;
64244;SDS011;50584;29.058;-110.966;2022-12-18T01:20:32;10.38;;;4.05;;
64244;SDS011;50584;29.058;-110.966;2022-12-18T01:22:58;19.77;;;3.95;;
64244;SDS011;50584;29.058;-110.966;2022-12-18T01:25:24;19.98;;;4.13;;
64244;SDS011;50584;29.058;-110.966;2022-12-18T01:27:50;19.02;;;4.60;;
64244;SDS011;50584;29.058;-110.966;2022-12-18T01:30:16;14.00;;;3.60;;
64244;SDS011;50584;29.058;-110.966;2022-12-18T01:32:41;5.50;;;3.22;;
64244;SDS011;50584;29.058;-110.966;2022-12-18T01:35:07;6.80;;;3.58;;
64244;SDS011;50584;29.058;-110.966;2022-12-18T01:37:33;7.00;;;3.60;;
64244;SDS011;50584;29.058;-110.966;2022-12-18T01:39:59;13.48;;;4.00;;
64244;SDS011;50584;29.058;-110.966;2022-12-18T01:42:25;12.18;;;4.20;;
64244;SDS011;50584;29.058;-110.966;2022-12-18T01:45:20;6.20;;;3.75;;
64244;SDS011;50584;29.058;-110.966;2022-12-18T01:47:49;11.93;;;4.22;;
64244;SDS011;50584;29.058;-110.966;2022-12-18T01:50:18;7.18;;;3.20;;
64244;SDS011;50584;29.058;-110.966;2022-12-18T01:52:47;15.65;;;4.30;;
64244;SDS011;50584;29.058;-110.966;2022-12-18T01:55:14;7.07;;;3.33;;
64244;SDS011;50584;29.058;-110.966;2022-12-18T01:57:40;10.95;;;3.28;;
64244;SDS011;50584;29.058;-110.966;2022-12-18T02:00:09;9.38;;;3.15;;
64244;SDS011;50584;29.058;-110.966;2022-12-18T02:02:35;3.63;;;3.33;;
64244;SDS011;50584;29.058;-110.966;2022-12-18T02:05:01;4.13;;;3.05;;
64244;SDS011;50584;29.058;-110.966;2022-12-18T02:07:45;8.40;;;3.75;;
64244;SDS011;50584;29.058;-110.966;2022-12-18T02:10:20;15.77;;;3.63;;
64244;SDS011;50584;29.058;-110.966;2022-12-18T02:13:12;8.45;;;3.65;;
64244;SDS011;50584;29.058;-110.966;2022-12-18T02:15:44;5.30;;;3.08;;
64244;SDS011;50584;29.058;-110.966;2022-12-18T02:18:12;11.40;;;3.05;;
64244;SDS011;50584;29.058;-110.966;2022-12-18T02:20:53;14.30;;;3.25;;
64244;SDS011;50584;29.058;-110.966;2022-12-18T02:23:27;8.25;;;2.90;;
64244;SDS011;50584;29.058;-110.966;2022-12-18T02:26:02;5.25;;;3.03;;
64244;SDS011;50584;29.058;-110.966;2022-12-18T02:28:33;8.90;;;3.33;;
64244;SDS011;50584;29.058;-110.966;2022-12-18T02:31:01;3.35;;;3.03;;
64244;SDS011;50584;29.058;-110.966;2022-12-18T02:33:28;3.75;;;2.83;;
64244;SDS011;50584;29.058;-110.966;2022-12-18T02:35:55;5.95;;;2.72;;
64244;SDS011;50584;29.058;-110.966;2022-12-18T02:38:22;5.00;;;2.60;;
64244;SDS011;50584;29.058;-110.966;2022-12-18T02:40:48;5.80;;;3.17;;
64244;SDS011;50584;29.058;-110.966;2022-12-18T02:43:15;7.40;;;2.65;;
64244;SDS011;50584;29.058;-110.966;2022-12-18T02:45:52;8.88;;;2.72;;
64244;SDS011;50584;29.058;-110.966;2022-12-18T02:48:19;8.38;;;2.78;;
64244;SDS011;50584;29.058;-110.966;2022-12-18T02:51:30;3.88;;;2.95;;
64244;SDS011;50584;29.058;-110.966;2022-12-18T02:53:38;2.97;;;2.70;;
64244;SDS011;50584;29.058;-110.966;2022-12-18T02:56:19;7.30;;;2.88;;
64244;SDS011;50584;29.058;-110.966;2022-12-18T03:04:19;5.35;;;3.55;;
64244;SDS011;50584;29.058;-110.966;2022-12-18T03:06:48;8.48;;;3.25;;
64244;SDS011;50584;29.058;-110.966;2022-12-18T03:09:17;16.48;;;3.38;;
64244;SDS011;50584;29.058;-110.966;2022-12-18T03:11:46;11.88;;;3.00;;
64244;SDS011;50584;29.058;-110.966;2022-12-18T03:14:32;10.25;;;3.00;;
64244;SDS011;50584;29.058;-110.966;2022-12-18T03:17:00;10.07;;;3.30;;
64244;SDS011;50584;29.058;-110.966;2022-12-18T03:19:27;9.18;;;3.33;;
64244;SDS011;50584;29.058;-110.966;2022-12-18T03:21:55;17.20;;;3.53;;
64244;SDS011;50584;29.058;-110.966;2022-12-18T03:24:22;12.43;;;3.60;;
64244;SDS011;50584;29.058;-110.966;2022-12-18T03:26:49;3.75;;;2.42;;
64244;SDS011;50584;29.058;-110.966;2022-12-18T03:29:38;8.15;;;3.05;;
64244;SDS011;50584;29.058;-110.966;2022-12-18T03:32:09;3.53;;;2.55;;
64244;SDS011;50584;29.058;-110.966;2022-12-18T03:34:37;3.33;;;2.30;;
64244;SDS011;50584;29.058;-110.966;2022-12-18T03:37:04;4.40;;;2.20;;
64244;SDS011;50584;29.058;-110.966;2022-12-18T03:39:30;4.53;;;2.33;;
64244;SDS011;50584;29.058;-110.966;2022-12-18T03:41:59;2.10;;;1.90;;
64244;SDS011;50584;29.058;-110.966;2022-12-18T03:52:21;3.00;;;2.55;;
64244;SDS011;50584;29.058;-110.966;2022-12-18T03:54:48;2.35;;;2.13;;
64244;SDS011;50584;29.058;-110.966;2022-12-18T03:57:18;4.68;;;2.17;;
64244;SDS011;50584;29.058;-110.966;2022-12-18T03:59:45;4.72;;;2.00;;
64244;SDS011;50584;29.058;-110.966;2022-12-18T04:02:12;8.65;;;2.47;;
64244;SDS011;50584;29.058;-110.966;2022-12-18T04:04:39;2.38;;;2.10;;
64244;SDS011;50584;29.058;-110.966;2022-12-18T04:07:05;6.32;;;2.35;;
64244;SDS011;50584;29.058;-110.966;2022-12-18T04:09:32;5.80;;;2.25;;
64244;SDS011;50584;29.058;-110.966;2022-12-18T04:11:58;5.72;;;2.10;;
64244;SDS011;50584;29.058;-110.966;2022-12-18T04:14:24;3.58;;;2.20;;
64244;SDS011;50584;29.058;-110.966;2022-12-18T04:16:50;8.75;;;2.38;;
64244;SDS011;50584;29.058;-110.966;2022-12-18T04:19:15;4.30;;;2.03;;
64244;SDS011;50584;29.058;-110.966;2022-12-18T04:21:41;11.38;;;2.63;;
64244;SDS011;50584;29.058;-110.966;2022-12-18T04:24:07;5.95;;;2.85;;
64244;SDS011;50584;29.058;-110.966;2022-12-18T04:26:33;15.00;;;3.33;;
64244;SDS011;50584;29.058;-110.966;2022-12-18T04:28:59;5.05;;;3.70;;
64244;SDS011;50584;29.058;-110.966;2022-12-18T04:31:25;3.08;;;2.63;;
64244;SDS011;50584;29.058;-110.966;2022-12-18T04:33:51;5.05;;;3.10;;
64244;SDS011;50584;29.058;-110.966;2022-12-18T04:36:17;6.10;;;3.17;;
64244;SDS011;50584;29.058;-110.966;2022-12-18T04:38:43;11.30;;;2.50;;
64244;SDS011;50584;29.058;-110.966;2022-12-18T04:41:09;5.05;;;1.80;;
64244;SDS011;50584;29.058;-110.966;2022-12-18T04:43:34;2.78;;;2.03;;
64244;SDS011;50584;29.058;-110.966;2022-12-18T04:46:01;13.98;;;2.15;;
64244;SDS011;50584;29.058;-110.966;2022-12-18T04:48:27;4.90;;;1.80;;
64244;SDS011;50584;29.058;-110.966;2022-12-18T04:50:53;4.07;;;2.85;;
64244;SDS011;50584;29.058;-110.966;2022-12-18T04:53:19;8.55;;;2.83;;
64244;SDS011;50584;29.058;-110.966;2022-12-18T04:55:44;6.82;;;2.85;;
64244;SDS011;50584;29.058;-110.966;2022-12-18T04:58:10;3.22;;;2.92;;
64244;SDS011;50584;29.058;-110.966;2022-12-18T05:00:36;3.35;;;2.60;;
64244;SDS011;50584;29.058;-110.966;2022-12-18T05:03:02;3.88;;;2.80;;
64244;SDS011;50584;29.058;-110.966;2022-12-18T05:05:28;10.50;;;3.42;;
64244;SDS011;50584;29.058;-110.966;2022-12-18T05:07:54;2.92;;;2.70;;
64244;SDS011;50584;29.058;-110.966;2022-12-18T05:10:19;6.55;;;2.58;;
64244;SDS011;50584;29.058;-110.966;2022-12-18T05:12:45;4.45;;;3.10;;
64244;SDS011;50584;29.058;-110.966;2022-12-18T05:15:23;8.30;;;2.72;;
64244;SDS011;50584;29.058;-110.966;2022-12-18T05:17:49;14.40;;;3.15;;
64244;SDS011;50584;29.058;-110.966;2022-12-18T05:20:15;7.78;;;3.30;;
64244;SDS011;50584;29.058;-110.966;2022-12-18T05:22:41;6.82;;;2.60;;
64244;SDS011;50584;29.058;-110.966;2022-12-18T05:25:07;7.03;;;3.10;;
64244;SDS011;50584;29.058;-110.966;2022-12-18T05:27:32;8.82;;;2.70;;
64244;SDS011;50584;29.058;-110.966;2022-12-18T05:29:58;14.43;;;3.80;;
64244;SDS011;50584;29.058;-110.966;2022-12-18T05:32:24;7.20;;;4.07;;
64244;SDS011;50584;29.058;-110.966;2022-12-18T05:34:50;6.95;;;3.58;;
64244;SDS011;50584;29.058;-110.966;2022-12-18T05:37:15;17.45;;;4.25;;
64244;SDS011;50584;29.058;-110.966;2022-12-18T05:39:42;16.20;;;3.92;;
64244;SDS011;50584;29.058;-110.966;2022-12-18T05:42:08;8.98;;;3.80;;
64244;SDS011;50584;29.058;-110.966;2022-12-18T05:44:34;14.45;;;4.00;;
64244;SDS011;50584;29.058;-110.966;2022-12-18T05:46:59;10.38;;;3.83;;
64244;SDS011;50584;29.058;-110.966;2022-12-18T05:49:25;13.75;;;4.38;;
64244;SDS011;50584;29.058;-110.966;2022-12-18T05:51:51;10.18;;;4.72;;
64244;SDS011;50584;29.058;-110.966;2022-12-18T05:54:17;13.20;;;4.45;;
64244;SDS011;50584;29.058;-110.966;2022-12-18T05:56:43;10.02;;;4.25;;
64244;SDS011;50584;29.058;-110.966;2022-12-18T05:59:09;11.68;;;3.60;;
64244;SDS011;50584;29.058;-110.966;2022-12-18T06:01:35;4.72;;;4.20;;
64244;SDS011;50584;29.058;-110.966;2022-12-18T06:04:00;19.00;;;6.65;;
64244;SDS011;50584;29.058;-110.966;2022-12-18T06:06:26;14.55;;;7.60;;
64244;SDS011;50584;29.058;-110.966;2022-12-18T06:08:53;11.15;;;5.85;;
64244;SDS011;50584;29.058;-110.966;2022-12-18T06:11:21;19.90;;;5.93;;
64244;SDS011;50584;29.058;-110.966;2022-12-18T06:13:49;14.18;;;5.22;;
64244;SDS011;50584;29.058;-110.966;2022-12-18T06:16:15;11.43;;;4.75;;
64244;SDS011;50584;29.058;-110.966;2022-12-18T06:18:41;13.60;;;4.90;;
64244;SDS011;50584;29.058;-110.966;2022-12-18T06:21:07;14.05;;;4.90;;
64244;SDS011;50584;29.058;-110.966;2022-12-18T06:23:32;18.10;;;4.80;;
64244;SDS011;50584;29.058;-110.966;2022-12-18T06:25:58;10.15;;;5.00;;
64244;SDS011;50584;29.058;-110.966;2022-12-18T06:28:24;17.85;;;5.35;;
64244;SDS011;50584;29.058;-110.966;2022-12-18T06:30:50;9.20;;;4.95;;
64244;SDS011;50584;29.058;-110.966;2022-12-18T06:33:16;19.60;;;5.10;;
64244;SDS011;50584;29.058;-110.966;2022-12-18T06:35:41;14.60;;;5.40;;
64244;SDS011;50584;29.058;-110.966;2022-12-18T06:38:07;14.38;;;5.65;;
64244;SDS011;50584;29.058;-110.966;2022-12-18T06:40:33;16.95;;;6.10;;
64244;SDS011;50584;29.058;-110.966;2022-12-18T06:42:59;11.18;;;6.03;;
64244;SDS011;50584;29.058;-110.966;2022-12-18T06:45:25;23.17;;;5.45;;
64244;SDS011;50584;29.058;-110.966;2022-12-18T06:47:51;15.65;;;6.03;;
64244;SDS011;50584;29.058;-110.966;2022-12-18T06:50:16;22.50;;;6.05;;
64244;SDS011;50584;29.058;-110.966;2022-12-18T06:52:42;18.75;;;6.25;;
64244;SDS011;50584;29.058;-110.966;2022-12-18T06:55:09;13.65;;;5.70;;
64244;SDS011;50584;29.058;-110.966;2022-12-18T06:57:35;14.68;;;5.45;;
64244;SDS011;50584;29.058;-110.966;2022-12-18T07:00:02;17.63;;;6.03;;
64244;SDS011;50584;29.058;-110.966;2022-12-18T07:02:28;20.25;;;5.60;;
64244;SDS011;50584;29.058;-110.966;2022-12-18T07:04:54;21.50;;;5.68;;
64244;SDS011;50584;29.058;-110.966;2022-12-18T07:07:20;22.25;;;6.20;;
64244;SDS011;50584;29.058;-110.966;2022-12-18T07:09:46;28.20;;;6.45;;
64244;SDS011;50584;29.058;-110.966;2022-12-18T07:12:11;21.70;;;6.38;;
64244;SDS011;50584;29.058;-110.966;2022-12-18T07:14:37;22.35;;;6.45;;
64244;SDS011;50584;29.058;-110.966;2022-12-18T07:17:03;18.05;;;7.10;;
64244;SDS011;50584;29.058;-110.966;2022-12-18T07:19:29;22.42;;;6.75;;
64244;SDS011;50584;29.058;-110.966;2022-12-18T07:21:55;19.30;;;6.15;;
64244;SDS011;50584;29.058;-110.966;2022-12-18T07:24:20;17.40;;;6.80;;
64244;SDS011;50584;29.058;-110.966;2022-12-18T07:26:46;15.90;;;5.85;;
64244;SDS011;50584;29.058;-110.966;2022-12-18T07:29:12;14.50;;;5.15;;
64244;SDS011;50584;29.058;-110.966;2022-12-18T07:31:38;11.07;;;5.07;;
64244;SDS011;50584;29.058;-110.966;2022-12-18T07:34:04;10.05;;;4.90;;
64244;SDS011;50584;29.058;-110.966;2022-12-18T07:36:29;21.10;;;5.13;;
64244;SDS011;50584;29.058;-110.966;2022-12-18T07:38:55;21.65;;;5.80;;
64244;SDS011;50584;29.058;-110.966;2022-12-18T07:41:21;9.98;;;5.03;;
64244;SDS011;50584;29.058;-110.966;2022-12-18T07:43:47;11.35;;;4.82;;
64244;SDS011;50584;29.058;-110.966;2022-12-18T07:46:13;6.03;;;4.20;;
64244;SDS011;50584;29.058;-110.966;2022-12-18T07:48:40;8.20;;;3.95;;
64244;SDS011;50584;29.058;-110.966;2022-12-18T07:51:06;11.80;;;4.07;;
64244;SDS011;50584;29.058;-110.966;2022-12-18T07:53:33;6.80;;;3.92;;
64244;SDS011;50584;29.058;-110.966;2022-12-18T07:55:59;12.98;;;4.47;;
64244;SDS011;50584;29.058;-110.966;2022-12-18T07:58:25;12.65;;;3.90;;
64244;SDS011;50584;29.058;-110.966;2022-12-18T08:00:51;16.13;;;4.65;;
64244;SDS011;50584;29.058;-110.966;2022-12-18T08:03:17;23.38;;;4.68;;
64244;SDS011;50584;29.058;-110.966;2022-12-18T08:05:43;4.07;;;3.40;;
64244;SDS011;50584;29.058;-110.966;2022-12-18T08:08:09;11.15;;;3.67;;
64244;SDS011;50584;29.058;-110.966;2022-12-18T08:10:35;6.78;;;2.97;;
64244;SDS011;50584;29.058;-110.966;2022-12-18T08:13:01;16.77;;;3.00;;
64244;SDS011;50584;29.058;-110.966;2022-12-18T08:15:27;3.08;;;2.78;;
64244;SDS011;50584;29.058;-110.966;2022-12-18T08:17:55;6.35;;;3.45;;
64244;SDS011;50584;29.058;-110.966;2022-12-18T08:20:21;10.48;;;3.08;;
64244;SDS011;50584;29.058;-110.966;2022-12-18T08:22:47;10.90;;;2.90;;
64244;SDS011;50584;29.058;-110.966;2022-12-18T08:25:13;6.07;;;2.95;;
64244;SDS011;50584;29.058;-110.966;2022-12-18T08:27:39;8.43;;;2.70;;
64244;SDS011;50584;29.058;-110.966;2022-12-18T08:30:04;3.35;;;2.60;;
64244;SDS011;50584;29.058;-110.966;2022-12-18T08:32:30;2.30;;;2.17;;
64244;SDS011;50584;29.058;-110.966;2022-12-18T08:34:58;3.63;;;3.28;;
64244;SDS011;50584;29.058;-110.966;2022-12-18T08:37:23;4.38;;;2.63;;
64244;SDS011;50584;29.058;-110.966;2022-12-18T08:39:49;4.63;;;2.60;;
64244;SDS011;50584;29.058;-110.966;2022-12-18T08:42:15;4.03;;;2.78;;
64244;SDS011;50584;29.058;-110.966;2022-12-18T08:44:59;5.63;;;2.75;;
64244;SDS011;50584;29.058;-110.966;2022-12-18T08:47:25;5.70;;;3.13;;
64244;SDS011;50584;29.058;-110.966;2022-12-18T08:49:51;4.45;;;3.08;;
64244;SDS011;50584;29.058;-110.966;2022-12-18T08:52:17;3.00;;;2.80;;
64244;SDS011;50584;29.058;-110.966;2022-12-18T08:54:42;6.70;;;3.08;;
64244;SDS011;50584;29.058;-110.966;2022-12-18T08:57:08;8.85;;;3.08;;
64244;SDS011;50584;29.058;-110.966;2022-12-18T08:59:34;6.18;;;3.05;;
64244;SDS011;50584;29.058;-110.966;2022-12-18T09:02:00;10.63;;;3.28;;
64244;SDS011;50584;29.058;-110.966;2022-12-18T09:04:26;8.75;;;2.80;;
64244;SDS011;50584;29.058;-110.966;2022-12-18T09:06:51;5.90;;;3.10;;
64244;SDS011;50584;29.058;-110.966;2022-12-18T09:09:17;10.50;;;3.17;;
64244;SDS011;50584;29.058;-110.966;2022-12-18T09:11:43;7.38;;;3.03;;
64244;SDS011;50584;29.058;-110.966;2022-12-18T09:14:09;12.15;;;3.25;;
64244;SDS011;50584;29.058;-110.966;2022-12-18T09:16:35;8.95;;;3.30;;
64244;SDS011;50584;29.058;-110.966;2022-12-18T09:19:02;3.58;;;3.28;;
64244;SDS011;50584;29.058;-110.966;2022-12-18T09:21:29;6.78;;;3.60;;
64244;SDS011;50584;29.058;-110.966;2022-12-18T09:23:55;7.15;;;3.95;;
64244;SDS011;50584;29.058;-110.966;2022-12-18T09:26:22;14.70;;;4.38;;
64244;SDS011;50584;29.058;-110.966;2022-12-18T09:28:48;8.15;;;4.18;;
64244;SDS011;50584;29.058;-110.966;2022-12-18T09:31:14;10.77;;;4.90;;
64244;SDS011;50584;29.058;-110.966;2022-12-18T09:33:40;5.05;;;3.83;;
64244;SDS011;50584;29.058;-110.966;2022-12-18T09:36:07;5.55;;;3.60;;
64244;SDS011;50584;29.058;-110.966;2022-12-18T09:38:33;7.45;;;4.63;;
64244;SDS011;50584;29.058;-110.966;2022-12-18T09:41:45;10.43;;;4.82;;
64244;SDS011;50584;29.058;-110.966;2022-12-18T09:43:47;14.93;;;4.30;;
64244;SDS011;50584;29.058;-110.966;2022-12-18T09:46:58;16.27;;;4.50;;
64244;SDS011;50584;29.058;-110.966;2022-12-18T09:49:04;9.00;;;4.25;;
64244;SDS011;50584;29.058;-110.966;2022-12-18T09:51:39;6.45;;;3.90;;
64244;SDS011;50584;29.058;-110.966;2022-12-18T09:57:03;9.35;;;3.88;;
64244;SDS011;50584;29.058;-110.966;2022-12-18T09:59:31;7.30;;;3.67;;
64244;SDS011;50584;29.058;-110.966;2022-12-18T10:01:57;9.77;;;3.90;;
64244;SDS011;50584;29.058;-110.966;2022-12-18T10:04:23;14.50;;;4.10;;
64244;SDS011;50584;29.058;-110.966;2022-12-18T10:09:19;13.10;;;4.60;;
64244;SDS011;50584;29.058;-110.966;2022-12-18T10:14:30;8.23;;;3.55;;
64244;SDS011;50584;29.058;-110.966;2022-12-18T10:17:02;13.00;;;3.47;;
64244;SDS011;50584;29.058;-110.966;2022-12-18T10:25:01;13.25;;;3.83;;
64244;SDS011;50584;29.058;-110.966;2022-12-18T10:27:28;18.55;;;4.07;;
64244;SDS011;50584;29.058;-110.966;2022-12-18T10:29:55;14.38;;;4.68;;
64244;SDS011;50584;29.058;-110.966;2022-12-18T10:32:22;7.13;;;3.88;;
64244;SDS011;50584;29.058;-110.966;2022-12-18T10:34:51;3.03;;;2.72;;
64244;SDS011;50584;29.058;-110.966;2022-12-18T10:37:19;3.42;;;3.13;;
64244;SDS011;50584;29.058;-110.966;2022-12-18T10:42:30;10.50;;;2.90;;
64244;SDS011;50584;29.058;-110.966;2022-12-18T10:45:29;14.23;;;3.92;;
64244;SDS011;50584;29.058;-110.966;2022-12-18T10:47:48;4.53;;;3.03;;
64244;SDS011;50584;29.058;-110.966;2022-12-18T10:50:33;4.63;;;2.90;;
64244;SDS011;50584;29.058;-110.966;2022-12-18T10:53:00;15.05;;;3.47;;
64244;SDS011;50584;29.058;-110.966;2022-12-18T10:55:28;4.20;;;3.80;;
64244;SDS011;50584;29.058;-110.966;2022-12-18T10:57:55;7.30;;;3.33;;
64244;SDS011;50584;29.058;-110.966;2022-12-18T11:00:38;4.60;;;3.40;;
64244;SDS011;50584;29.058;-110.966;2022-12-18T11:03:07;6.70;;;3.28;;
64244;SDS011;50584;29.058;-110.966;2022-12-18T11:05:49;10.70;;;6.03;;
64244;SDS011;50584;29.058;-110.966;2022-12-18T11:08:26;7.30;;;3.47;;
64244;SDS011;50584;29.058;-110.966;2022-12-18T11:10:52;9.00;;;3.58;;
64244;SDS011;50584;29.058;-110.966;2022-12-18T11:13:21;10.20;;;3.53;;
64244;SDS011;50584;29.058;-110.966;2022-12-18T11:15:48;9.15;;;3.28;;
64244;SDS011;50584;29.058;-110.966;2022-12-18T11:18:22;6.15;;;3.60;;
64244;SDS011;50584;29.058;-110.966;2022-12-18T11:20:51;6.97;;;3.10;;
64244;SDS011;50584;29.058;-110.966;2022-12-18T11:23:17;13.88;;;3.13;;
64244;SDS011;50584;29.058;-110.966;2022-12-18T11:26:05;8.98;;;3.22;;
64244;SDS011;50584;29.058;-110.966;2022-12-18T11:28:35;5.78;;;3.03;;
64244;SDS011;50584;29.058;-110.966;2022-12-18T11:36:18;5.78;;;2.60;;
64244;SDS011;50584;29.058;-110.966;2022-12-18T11:38:44;7.53;;;2.65;;
64244;SDS011;50584;29.058;-110.966;2022-12-18T11:44:19;4.47;;;2.65;;
64244;SDS011;50584;29.058;-110.966;2022-12-18T11:46:39;7.57;;;3.08;;
64244;SDS011;50584;29.058;-110.966;2022-12-18T11:52:33;3.00;;;2.80;;
64244;SDS011;50584;29.058;-110.966;2022-12-18T11:55:07;3.78;;;2.50;;
64244;SDS011;50584;29.058;-110.966;2022-12-18T12:00:19;5.93;;;2.50;;
64244;SDS011;50584;29.058;-110.966;2022-12-18T12:05:25;5.90;;;2.60;;
64244;SDS011;50584;29.058;-110.966;2022-12-18T12:12:56;7.20;;;3.03;;
64244;SDS011;50584;29.058;-110.966;2022-12-18T12:18:01;2.80;;;2.70;;
64244;SDS011;50584;29.058;-110.966;2022-12-18T12:23:27;5.03;;;2.55;;
64244;SDS011;50584;29.058;-110.966;2022-12-18T12:26:16;2.30;;;2.20;;
64244;SDS011;50584;29.058;-110.966;2022-12-18T12:33:43;3.88;;;2.30;;
64244;SDS011;50584;29.058;-110.966;2022-12-18T12:39:01;3.13;;;2.28;;
64244;SDS011;50584;29.058;-110.966;2022-12-18T12:41:27;3.47;;;2.20;;
64244;SDS011;50584;29.058;-110.966;2022-12-18T12:44:16;5.90;;;2.20;;
64244;SDS011;50584;29.058;-110.966;2022-12-18T12:46:44;2.50;;;2.30;;
64244;SDS011;50584;29.058;-110.966;2022-12-18T12:49:15;4.28;;;1.98;;
64244;SDS011;50584;29.058;-110.966;2022-12-18T12:51:42;3.58;;;2.30;;
64244;SDS011;50584;29.058;-110.966;2022-12-18T12:54:12;13.45;;;2.28;;
64244;SDS011;50584;29.058;-110.966;2022-12-18T13:01:53;4.28;;;2.30;;
64244;SDS011;50584;29.058;-110.966;2022-12-18T13:04:56;15.25;;;3.03;;
64244;SDS011;50584;29.058;-110.966;2022-12-18T13:07:20;6.13;;;2.38;;
64244;SDS011;50584;29.058;-110.966;2022-12-18T13:10:11;2.90;;;2.70;;
64244;SDS011;50584;29.058;-110.966;2022-12-18T13:25:57;2.30;;;2.20;;
64244;SDS011;50584;29.058;-110.966;2022-12-18T13:31:02;6.00;;;2.15;;
64244;SDS011;50584;29.058;-110.966;2022-12-18T13:33:46;3.17;;;2.40;;
64244;SDS011;50584;29.058;-110.966;2022-12-18T13:36:13;2.33;;;2.20;;
64244;SDS011;50584;29.058;-110.966;2022-12-18T13:38:40;2.50;;;2.38;;
64244;SDS011;50584;29.058;-110.966;2022-12-18T13:43:42;2.63;;;2.42;;
64244;SDS011;50584;29.058;-110.966;2022-12-18T13:46:21;3.80;;;2.30;;
64244;SDS011;50584;29.058;-110.966;2022-12-18T13:49:19;2.40;;;2.20;;
64244;SDS011;50584;29.058;-110.966;2022-12-18T13:51:50;2.60;;;2.15;;
64244;SDS011;50584;29.058;-110.966;2022-12-18T13:56:48;7.28;;;2.55;;
64244;SDS011;50584;29.058;-110.966;2022-12-18T13:59:15;2.40;;;2.22;;
64244;SDS011;50584;29.058;-110.966;2022-12-18T14:01:45;2.30;;;2.20;;
64244;SDS011;50584;29.058;-110.966;2022-12-18T14:04:12;3.38;;;2.25;;
64244;SDS011;50584;29.058;-110.966;2022-12-18T14:09:10;2.50;;;2.30;;
64244;SDS011;50584;29.058;-110.966;2022-12-18T14:11:38;2.10;;;2.00;;
64244;SDS011;50584;29.058;-110.966;2022-12-18T14:14:04;7.20;;;2.45;;
64244;SDS011;50584;29.058;-110.966;2022-12-18T14:16:32;2.38;;;2.17;;
64244;SDS011;50584;29.058;-110.966;2022-12-18T14:18:59;2.50;;;2.30;;
64244;SDS011;50584;29.058;-110.966;2022-12-18T14:21:26;4.78;;;2.75;;
64244;SDS011;50584;29.058;-110.966;2022-12-18T14:24:13;3.58;;;2.35;;
64244;SDS011;50584;29.058;-110.966;2022-12-18T14:26:40;2.72;;;2.45;;
64244;SDS011;50584;29.058;-110.966;2022-12-18T14:34:35;2.90;;;2.50;;
64244;SDS011;50584;29.058;-110.966;2022-12-18T14:37:00;7.40;;;3.17;;
64244;SDS011;50584;29.058;-110.966;2022-12-18T14:39:26;4.38;;;3.53;;
64244;SDS011;50584;29.058;-110.966;2022-12-18T14:41:52;5.28;;;2.60;;
64244;SDS011;50584;29.058;-110.966;2022-12-18T14:44:18;4.97;;;2.47;;
64244;SDS011;50584;29.058;-110.966;2022-12-18T14:46:48;10.60;;;3.53;;
64244;SDS011;50584;29.058;-110.966;2022-12-18T14:49:31;4.03;;;2.90;;
64244;SDS011;50584;29.058;-110.966;2022-12-18T14:51:57;11.35;;;3.45;;
64244;SDS011;50584;29.058;-110.966;2022-12-18T14:54:24;9.18;;;3.00;;
64244;SDS011;50584;29.058;-110.966;2022-12-18T14:57:36;7.07;;;2.97;;
64244;SDS011;50584;29.058;-110.966;2022-12-18T14:59:37;9.20;;;2.70;;
64244;SDS011;50584;29.058;-110.966;2022-12-18T15:02:04;5.63;;;2.47;;
64244;SDS011;50584;29.058;-110.966;2022-12-18T15:04:36;3.00;;;2.80;;
64244;SDS011;50584;29.058;-110.966;2022-12-18T15:09:30;5.50;;;2.70;;
64244;SDS011;50584;29.058;-110.966;2022-12-18T15:12:00;8.77;;;2.67;;
64244;SDS011;50584;29.058;-110.966;2022-12-18T15:14:38;5.38;;;2.42;;
64244;SDS011;50584;29.058;-110.966;2022-12-18T15:17:16;17.98;;;2.92;;
64244;SDS011;50584;29.058;-110.966;2022-12-18T15:19:42;2.60;;;2.40;;
64244;SDS011;50584;29.058;-110.966;2022-12-18T15:22:19;3.90;;;2.33;;
64244;SDS011;50584;29.058;-110.966;2022-12-18T15:24:45;5.38;;;2.75;;
64244;SDS011;50584;29.058;-110.966;2022-12-18T15:32:33;4.00;;;2.90;;
64244;SDS011;50584;29.058;-110.966;2022-12-18T15:35:19;5.75;;;2.70;;
64244;SDS011;50584;29.058;-110.966;2022-12-18T15:37:45;2.60;;;2.40;;
64244;SDS011;50584;29.058;-110.966;2022-12-18T15:40:12;2.47;;;2.28;;
64244;SDS011;50584;29.058;-110.966;2022-12-18T15:42:39;6.20;;;3.60;;
64244;SDS011;50584;29.058;-110.966;2022-12-18T15:45:22;2.88;;;2.67;;
64244;SDS011;50584;29.058;-110.966;2022-12-18T15:47:48;8.35;;;3.13;;
64244;SDS011;50584;29.058;-110.966;2022-12-18T15:50:14;11.43;;;2.42;;
64244;SDS011;50584;29.058;-110.966;2022-12-18T15:52:43;3.20;;;2.90;;
64244;SDS011;50584;29.058;-110.966;2022-12-18T15:55:17;2.53;;;2.25;;
64244;SDS011;50584;29.058;-110.966;2022-12-18T15:58:01;3.88;;;2.97;;
64244;SDS011;50584;29.058;-110.966;2022-12-18T16:00:27;6.45;;;3.78;;